Kennicott — WCY2920 — position and weather

sailwx.info

Track history (hours):
 
Tides and Currents Weather Stations Pressure Air Temp Water Temp Dewpoint Dewpoint Depression Visibility Wind Speed Wind Dir Waves Ship Positions

Kennicott

Owner: ALASKA, STATE OF, Anchorage, AK. More information available from US FCC via Universal Licensing System and Coast Guard Vessel Documentation Center.

Last reported at 2018-Feb-24 17:41 UTC. Time now 2018-Feb-26 01:18 UTC.
Position N 54°47' W 130°57'.

Type: Passenger vessel. MMSI: 368250000.

Date/timePositionNaut miles runAvg speedWind from/ knotsBaromVisibWave heightAir tempDewpointWater temp
2018-Feb-24 17:41N 54°47' W 130°57'214.5
2018-Feb-24 17:30N 54°45' W 130°54'714.8
2018-Feb-24 17:00N 54°40' W 130°45'714.3
2018-Feb-24 16:30N 54°33' W 130°39'714.3
2018-Feb-24 16:00N 54°26' W 130°37'714.5
2018-Feb-24 15:30N 54°19' W 130°35'713.9
2018-Feb-24 15:00N 54°14' W 130°27'4 7.6
2018-Feb-24 14:30N 54°17' W 130°22'1 1.6
2018-Feb-24 13:50N 54°18' W 130°21'0 0.0
2018-Feb-24 13:29N 54°18' W 130°21'0 0.0
2018-Feb-24 12:59N 54°18' W 130°21'0 0.0
2018-Feb-24 12:29N 54°18' W 130°21'0 0.0
2018-Feb-24 11:59N 54°18' W 130°21'0 0.0
2018-Feb-24 11:29N 54°18' W 130°21'1 1.4
2018-Feb-24 11:01N 54°17' W 130°22'4 8.3
2018-Feb-24 10:30N 54°13' W 130°23'815.8
2018-Feb-24 10:01N 54°18' W 130°34'815.8
2018-Feb-24 09:30N 54°25' W 130°37'816.1
2018-Feb-24 09:00N 54°33' W 130°40'915.7
2018-Feb-24 08:27N 54°41' W 130°48'13 1.4
2018-Feb-23 22:39N 54°52' W 131°01'416.0
2018-Feb-23 22:25N 54°48' W 130°59'614.6
2018-Feb-23 22:00N 54°44' W 130°52'815.7
2018-Feb-23 21:30N 54°38' W 130°43'816.0
2018-Feb-23 21:00N 54°30' W 130°38'815.2
2018-Feb-23 20:31N 54°23' W 130°36'815.8
2018-Feb-23 20:01N 54°15' W 130°32'815.5
2018-Feb-23 19:30N 54°09' W 130°25'714.7
2018-Feb-23 19:01N 54°03' W 130°16'815.9
2018-Feb-23 18:30N 53°56' W 130°12'815.7
2018-Feb-23 18:00N 53°51' W 130°02'816.1
2018-Feb-23 17:30N 53°45' W 129°52'7415.7
2018-Feb-23 12:48N 52°39' W 128°57'616.6
2018-Feb-23 12:24N 52°33' W 128°52'817.5
2018-Feb-23 11:58N 52°25' W 128°50'817.5
2018-Feb-23 11:30N 52°17' W 128°47'816.3
2018-Feb-23 11:00N 52°11' W 128°39'816.3
2018-Feb-23 10:30N 52°03' W 128°36'917.1
2018-Feb-23 10:00N 51°54' W 128°34'917.3
2018-Feb-23 09:30N 51°47' W 128°28'817.0
2018-Feb-23 09:00N 51°39' W 128°21'917.4
2018-Feb-23 08:30N 51°32' W 128°13'917.1
2018-Feb-23 08:00N 51°25' W 128°05'816.2
2018-Feb-23 07:30N 51°19' W 127°56'817.0
2018-Feb-23 07:00N 51°12' W 127°51'917.0
2018-Feb-23 06:30N 51°05' W 127°42'816.9
2018-Feb-23 06:00N 50°59' W 127°33'917.5
2018-Feb-23 05:30N 50°54' W 127°22'917.1
2018-Feb-23 04:59N 50°49' W 127°09'816.8
2018-Feb-23 04:30N 50°44' W 126°59'1116.8
2018-Feb-23 03:50N 50°37' W 126°46'514.8
2018-Feb-23 03:30N 50°33' W 126°41'816.1
2018-Feb-23 02:59N 50°30' W 126°29'2815.1
2018-Feb-23 01:08N 50°23' W 125°47'214.8
2018-Feb-23 01:01N 50°22' W 125°44'815.1
2018-Feb-23 00:30N 50°21' W 125°32'713.7
2018-Feb-23 00:00N 50°17' W 125°24'816.7
2018-Feb-22 23:30N 50°09' W 125°21'815.4
2018-Feb-22 23:00N 50°03' W 125°14'715.0
2018-Feb-22 22:30N 49°56' W 125°08'816.3
2018-Feb-22 22:01N 49°51' W 124°58'816.3
2018-Feb-22 21:30N 49°45' W 124°49'816.2
2018-Feb-22 21:01N 49°41' W 124°38'916.7
2018-Feb-22 20:29N 49°36' W 124°27'1616.2
2018-Feb-22 19:31N 49°28' W 124°06'116.2
2018-Feb-22 19:28N 49°28' W 124°05'816.5
2018-Feb-22 18:59N 49°24' W 123°55'816.5
2018-Feb-22 18:30N 49°19' W 123°45'816.4
2018-Feb-22 18:00N 49°13' W 123°36'816.7
2018-Feb-22 17:30N 49°08' W 123°26'816.3
2018-Feb-22 17:00N 49°02' W 123°17'816.5
2018-Feb-22 16:30N 48°57' W 123°08'816.5
2018-Feb-22 16:00N 48°51' W 122°58'816.7
2018-Feb-22 15:30N 48°46' W 122°48'816.3
2018-Feb-22 15:00N 48°40' W 122°41'511.0
2018-Feb-22 14:30N 48°41' W 122°33'2 5.0
2018-Feb-22 14:01N 48°43' W 122°31'0 0.0
2018-Feb-22 13:23N 48°43' W 122°31'0 0.0
2018-Feb-22 12:59N 48°43' W 122°31'0 0.0
2018-Feb-22 12:29N 48°43' W 122°31'0 0.0
2018-Feb-22 11:59N 48°43' W 122°31'0 0.0
2018-Feb-22 11:29N 48°43' W 122°31'0 0.0
2018-Feb-22 10:56N 48°43' W 122°31'0 0.0
2018-Feb-22 10:26N 48°43' W 122°31'0 0.0
2018-Feb-22 09:59N 48°43' W 122°31'0 0.0
2018-Feb-22 09:26N 48°43' W 122°31'0 0.0
2018-Feb-22 08:59N 48°43' W 122°31'0 0.0
2018-Feb-22 08:29N 48°43' W 122°31'0 0.0
2018-Feb-22 07:59N 48°43' W 122°31'0 0.0
2018-Feb-22 07:29N 48°43' W 122°31'0 0.0
2018-Feb-22 06:53N 48°43' W 122°31'0 0.0
2018-Feb-22 06:29N 48°43' W 122°31'0 0.0
2018-Feb-22 05:59N 48°43' W 122°31'0 0.0
2018-Feb-22 05:29N 48°43' W 122°31'0 0.0
2018-Feb-22 04:59N 48°43' W 122°31'0 0.0
2018-Feb-22 04:29N 48°43' W 122°31'0 0.0
2018-Feb-22 03:56N 48°43' W 122°31'0 0.0
2018-Feb-22 03:29N 48°43' W 122°31'0 0.0
2018-Feb-22 02:59N 48°43' W 122°31'0 0.0
2018-Feb-22 02:29N 48°43' W 122°31'0 0.0
2018-Feb-22 01:56N 48°43' W 122°31'0 0.0
2018-Feb-22 01:29N 48°43' W 122°31'0 0.0
2018-Feb-22 00:59N 48°43' W 122°31'0 0.0
2018-Feb-22 00:29N 48°43' W 122°31'0 0.0
2018-Feb-21 23:56N 48°43' W 122°31'0 0.0
2018-Feb-21 23:29N 48°43' W 122°31'0 0.0
2018-Feb-21 23:01N 48°43' W 122°31'0 0.0
2018-Feb-21 22:30N 48°43' W 122°31'0 0.0
2018-Feb-21 22:00N 48°43' W 122°31'0 0.0
2018-Feb-21 21:31N 48°43' W 122°31'1 1.6
2018-Feb-21 21:00N 48°44' W 122°32'4 7.2
2018-Feb-21 20:30N 48°40' W 122°31'2 3.3
2018-Feb-21 20:00N 48°39' W 122°33'612.3
2018-Feb-21 19:30N 48°34' W 122°40'612.8
2018-Feb-21 19:00N 48°29' W 122°44'815.5
2018-Feb-21 18:30N 48°21' W 122°45'1514.4
2018-Feb-21 17:29N 48°07' W 122°39'817.0
2018-Feb-21 17:01N 47°59' W 122°35'816.2
2018-Feb-21 16:31N 47°53' W 122°28'816.0
2018-Feb-21 16:01N 47°45' W 122°26'715.0
2018-Feb-21 15:31N 47°37' W 122°25'3 6.3
2018-Feb-21 15:00N 47°35' W 122°21'0 0.0
2018-Feb-21 14:30N 47°35' W 122°21'0 0.0
2018-Feb-21 14:00N 47°35' W 122°21'0 0.0
2018-Feb-21 13:30N 47°35' W 122°21'0 0.0
2018-Feb-21 13:00N 47°35' W 122°21'0 0.0
2018-Feb-21 12:30N 47°35' W 122°21'0 0.0
2018-Feb-21 12:00N 47°35' W 122°21'0 0.0
2018-Feb-21 11:30N 47°35' W 122°21'0 0.0
2018-Feb-21 11:00N 47°35' W 122°21'0 0.0
2018-Feb-21 10:30N 47°35' W 122°21'0 0.0
2018-Feb-21 10:00N 47°35' W 122°21'0 0.0
2018-Feb-21 09:30N 47°35' W 122°21'0 0.0
2018-Feb-21 09:00N 47°35' W 122°21'0 0.0
2018-Feb-21 08:30N 47°35' W 122°21'0 0.0
2018-Feb-21 08:00N 47°35' W 122°21'0 0.0
2018-Feb-21 07:30N 47°35' W 122°21'0 0.0
2018-Feb-21 07:00N 47°35' W 122°21'0 0.0
2018-Feb-21 06:30N 47°35' W 122°21'0 0.0
2018-Feb-21 06:00N 47°35' W 122°21'0 0.0
2018-Feb-21 05:30N 47°35' W 122°21'0 0.0
2018-Feb-21 05:00N 47°35' W 122°21'0 0.0
2018-Feb-21 04:30N 47°35' W 122°21'0 0.0
2018-Feb-21 04:00N 47°35' W 122°21'0 0.0
2018-Feb-21 03:30N 47°35' W 122°21'0 0.0
2018-Feb-21 03:00N 47°35' W 122°21'0 0.0
2018-Feb-21 02:30N 47°35' W 122°21'0 0.0
2018-Feb-21 02:00N 47°35' W 122°21'0 0.0
2018-Feb-21 01:30N 47°35' W 122°21'0 0.0
2018-Feb-21 01:00N 47°35' W 122°21'0 0.0
2018-Feb-21 00:30N 47°35' W 122°21'0 0.0
2018-Feb-21 00:00N 47°35' W 122°21'0 0.0
2018-Feb-20 23:30N 47°35' W 122°21'0 0.0
2018-Feb-20 23:00N 47°35' W 122°21'0 0.0
2018-Feb-20 22:28N 47°35' W 122°21'0 0.0
2018-Feb-20 21:58N 47°35' W 122°21'0 0.0
2018-Feb-20 21:28N 47°35' W 122°21'0 0.0
2018-Feb-20 20:58N 47°35' W 122°21'0 0.0
2018-Feb-20 20:28N 47°35' W 122°21'0 0.0
2018-Feb-20 19:58N 47°35' W 122°21'0 0.0
2018-Feb-20 19:28N 47°35' W 122°21'0 0.0
2018-Feb-20 18:58N 47°35' W 122°21'0 0.0
2018-Feb-20 18:28N 47°35' W 122°21'0 0.0
2018-Feb-20 17:58N 47°35' W 122°21'0 0.0
2018-Feb-20 17:28N 47°35' W 122°21'0 0.0
2018-Feb-20 16:58N 47°35' W 122°21'0 0.0
2018-Feb-20 16:28N 47°35' W 122°21'0 0.0
2018-Feb-20 15:58N 47°35' W 122°21'0 0.0
2018-Feb-20 15:28N 47°35' W 122°21'0 0.0
2018-Feb-20 14:58N 47°35' W 122°21'0 0.0
2018-Feb-20 14:28N 47°35' W 122°21'0 0.0
2018-Feb-20 13:58N 47°35' W 122°21'0 0.0
2018-Feb-20 13:28N 47°35' W 122°21'0 0.0
2018-Feb-20 12:58N 47°35' W 122°21'0 0.0
2018-Feb-20 12:28N 47°35' W 122°21'0 0.0
2018-Feb-20 11:58N 47°35' W 122°21'0 0.0
2018-Feb-20 11:28N 47°35' W 122°21'0 0.0
2018-Feb-20 10:58N 47°35' W 122°21'0 0.0
2018-Feb-20 10:28N 47°35' W 122°21'0 0.0
2018-Feb-20 09:58N 47°35' W 122°21'0 0.0
2018-Feb-20 09:28N 47°35' W 122°21'0 0.0
2018-Feb-20 08:58N 47°35' W 122°21'0 0.0
2018-Feb-20 08:28N 47°35' W 122°21'0 0.0
2018-Feb-20 07:58N 47°35' W 122°21'0 0.0
2018-Feb-20 07:28N 47°35' W 122°21'0 0.0
2018-Feb-20 06:58N 47°35' W 122°21'0 0.0
2018-Feb-20 06:28N 47°35' W 122°21'0 0.0
2018-Feb-20 05:58N 47°35' W 122°21'0 0.0
2018-Feb-20 05:28N 47°35' W 122°21'0 0.0
2018-Feb-20 04:58N 47°35' W 122°21'0 0.0
2018-Feb-20 04:28N 47°35' W 122°21'0 0.0
2018-Feb-20 03:58N 47°35' W 122°21'0 0.0
2018-Feb-20 03:28N 47°35' W 122°21'0 0.0
2018-Feb-20 02:58N 47°35' W 122°21'0 0.0
2018-Feb-20 02:28N 47°35' W 122°21'0 0.0
2018-Feb-20 01:58N 47°35' W 122°21'0 0.0
2018-Feb-20 01:28N 47°35' W 122°21'0 0.0
2018-Feb-20 00:59N 47°35' W 122°21'0 0.0
2018-Feb-20 00:28N 47°35' W 122°21'0 0.0
2018-Feb-20 00:00N 47°35' W 122°21'0 0.0
2018-Feb-19 23:29N 47°35' W 122°21'0 0.0
2018-Feb-19 23:00N 47°35' W 122°21'0 0.0
2018-Feb-19 22:29N 47°35' W 122°21'0 0.0
2018-Feb-19 21:58N 47°35' W 122°21'0 0.0
2018-Feb-19 21:28N 47°35' W 122°21'0 0.0
2018-Feb-19 20:59N 47°35' W 122°21'0 0.0
2018-Feb-19 20:29N 47°35' W 122°21'0 0.0
2018-Feb-19 19:59N 47°35' W 122°21'0 0.0
2018-Feb-19 19:29N 47°35' W 122°21'0 0.0
2018-Feb-19 18:58N 47°35' W 122°21'0 0.0
2018-Feb-19 18:30N 47°35' W 122°21'0 0.0
2018-Feb-19 17:58N 47°35' W 122°21'0 0.0
2018-Feb-19 17:28N 47°35' W 122°21'0 0.0
2018-Feb-19 16:58N 47°35' W 122°21'0 0.0
2018-Feb-19 16:28N 47°35' W 122°21'0 0.0
2018-Feb-19 15:58N 47°35' W 122°21'0 0.0
2018-Feb-19 15:28N 47°35' W 122°21'0 0.0
2018-Feb-19 14:58N 47°35' W 122°21'0 0.0
2018-Feb-19 14:28N 47°35' W 122°21'0 0.0
2018-Feb-19 13:58N 47°35' W 122°21'0 0.0
2018-Feb-19 13:28N 47°35' W 122°21'0 0.0
2018-Feb-19 12:58N 47°35' W 122°21'0 0.0
2018-Feb-19 12:28N 47°35' W 122°21'0 0.0
2018-Feb-19 11:58N 47°35' W 122°21'0 0.0
2018-Feb-19 11:28N 47°35' W 122°21'0 0.0
2018-Feb-19 10:58N 47°35' W 122°21'0 0.0
2018-Feb-19 10:28N 47°35' W 122°21'0 0.0
2018-Feb-19 09:58N 47°35' W 122°21'0 0.0
2018-Feb-19 09:28N 47°35' W 122°21'0 0.0
2018-Feb-19 08:58N 47°35' W 122°21'0 0.0
2018-Feb-19 08:25N 47°35' W 122°21'0 0.0
2018-Feb-19 07:58N 47°35' W 122°21'0 0.0
2018-Feb-19 07:28N 47°35' W 122°21'0 0.0
2018-Feb-19 06:55N 47°35' W 122°21'0 0.0
2018-Feb-19 06:28N 47°35' W 122°21'0 0.0
2018-Feb-19 05:58N 47°35' W 122°21'0 0.0
2018-Feb-19 05:28N 47°35' W 122°21'0 0.0
2018-Feb-19 04:58N 47°35' W 122°21'0 0.0
2018-Feb-19 04:28N 47°35' W 122°21'0 0.0
2018-Feb-19 03:58N 47°35' W 122°21'0 0.0
2018-Feb-19 03:28N 47°35' W 122°21'0 0.0
2018-Feb-19 02:58N 47°35' W 122°21'0 0.0
2018-Feb-19 02:28N 47°35' W 122°21'0 0.0
2018-Feb-19 01:58N 47°35' W 122°21'0 0.0
2018-Feb-19 01:28N 47°35' W 122°21'0 0.0
2018-Feb-19 00:58N 47°35' W 122°21'0 0.0
2018-Feb-19 00:28N 47°35' W 122°21'0 0.0
2018-Feb-18 23:58N 47°35' W 122°21'0 0.0
2018-Feb-18 23:28N 47°35' W 122°21'0 0.0
2018-Feb-18 22:58N 47°35' W 122°21'0 0.0
2018-Feb-18 22:28N 47°35' W 122°21'0 0.0
2018-Feb-18 21:58N 47°35' W 122°21'0 0.0
2018-Feb-18 21:29N 47°35' W 122°21'0 0.0
2018-Feb-18 21:00N 47°35' W 122°21'0 0.0
2018-Feb-18 20:29N 47°35' W 122°21'0 0.0
2018-Feb-18 19:58N 47°35' W 122°21'0 0.0
2018-Feb-18 19:29N 47°35' W 122°21'0 0.0
2018-Feb-18 18:58N 47°35' W 122°21'0 0.0
2018-Feb-18 18:28N 47°35' W 122°21'0 0.0
2018-Feb-18 17:58N 47°35' W 122°21'0 0.0
2018-Feb-18 17:28N 47°35' W 122°21'0 0.0
2018-Feb-18 16:55N 47°35' W 122°21'0 0.0
2018-Feb-18 16:28N 47°35' W 122°21'0 0.0
2018-Feb-18 15:58N 47°35' W 122°21'0 0.0
2018-Feb-18 15:28N 47°35' W 122°21'0 0.0
2018-Feb-18 14:55N 47°35' W 122°21'0 0.0
2018-Feb-18 14:28N 47°35' W 122°21'0 0.0
2018-Feb-18 13:58N 47°35' W 122°21'0 0.0
2018-Feb-18 13:28N 47°35' W 122°21'0 0.0
2018-Feb-18 12:58N 47°35' W 122°21'0 0.0
2018-Feb-18 12:28N 47°35' W 122°21'0 0.0
2018-Feb-18 11:58N 47°35' W 122°21'0 0.0
2018-Feb-18 11:28N 47°35' W 122°21'0 0.0
2018-Feb-18 10:58N 47°35' W 122°21'0 0.0
2018-Feb-18 10:28N 47°35' W 122°21'0 0.0
2018-Feb-18 09:58N 47°35' W 122°21'0 0.0
2018-Feb-18 09:28N 47°35' W 122°21'0 0.0
2018-Feb-18 08:58N 47°35' W 122°21'0 0.0
2018-Feb-18 08:25N 47°35' W 122°21'0 0.0
2018-Feb-18 07:55N 47°35' W 122°21'0 0.0
2018-Feb-18 07:28N 47°35' W 122°21'0 0.0
2018-Feb-18 06:58N 47°35' W 122°21'0 0.0
2018-Feb-18 06:28N 47°35' W 122°21'0 0.0
2018-Feb-18 05:58N 47°35' W 122°21'0 0.0
2018-Feb-18 05:28N 47°35' W 122°21'0 0.0
2018-Feb-18 04:58N 47°35' W 122°21'0 0.0
2018-Feb-18 04:28N 47°35' W 122°21'0 0.0
2018-Feb-18 03:58N 47°35' W 122°21'0 0.0
2018-Feb-18 03:25N 47°35' W 122°21'0 0.0
2018-Feb-18 02:58N 47°35' W 122°21'0 0.0
2018-Feb-18 02:28N 47°35' W 122°21'0 0.0
2018-Feb-18 01:58N 47°35' W 122°21'0 0.0
2018-Feb-18 01:28N 47°35' W 122°21'0 0.0
2018-Feb-18 00:58N 47°35' W 122°21'0 0.0
2018-Feb-18 00:28N 47°35' W 122°21'0 0.0
2018-Feb-17 23:58N 47°35' W 122°21'0 0.0
2018-Feb-17 23:28N 47°35' W 122°21'0 0.0
2018-Feb-17 22:58N 47°35' W 122°21'0 0.0
2018-Feb-17 22:28N 47°35' W 122°21'0 0.0
2018-Feb-17 21:58N 47°35' W 122°21'0 0.0
2018-Feb-17 21:28N 47°35' W 122°21'0 0.0
2018-Feb-17 20:58N 47°35' W 122°21'0 0.0
2018-Feb-17 20:28N 47°35' W 122°21'0 0.0
2018-Feb-17 19:58N 47°35' W 122°21'0 0.0
2018-Feb-17 19:28N 47°35' W 122°21'0 0.0
2018-Feb-17 18:58N 47°35' W 122°21'0 0.0
2018-Feb-17 18:28N 47°35' W 122°21'0 0.0
2018-Feb-17 17:58N 47°35' W 122°21'0 0.0
2018-Feb-17 17:28N 47°35' W 122°21'0 0.0
2018-Feb-17 16:58N 47°35' W 122°21'0 0.0
2018-Feb-17 16:28N 47°35' W 122°21'0 0.0
2018-Feb-17 15:58N 47°35' W 122°21'0 0.0
2018-Feb-17 15:28N 47°35' W 122°21'0 0.0
2018-Feb-17 14:58N 47°35' W 122°21'0 0.0
2018-Feb-17 14:28N 47°35' W 122°21'0 0.0
2018-Feb-17 13:58N 47°35' W 122°21'0 0.0
2018-Feb-17 13:28N 47°35' W 122°21'0 0.0
2018-Feb-17 12:58N 47°35' W 122°21'0 0.0
2018-Feb-17 12:28N 47°35' W 122°21'0 0.0
2018-Feb-17 11:58N 47°35' W 122°21'0 0.0
2018-Feb-17 11:28N 47°35' W 122°21'0 0.0
2018-Feb-17 10:58N 47°35' W 122°21'0 0.0
2018-Feb-17 10:28N 47°35' W 122°21'0 0.0
2018-Feb-17 09:58N 47°35' W 122°21'0 0.0
2018-Feb-17 09:28N 47°35' W 122°21'0 0.0
2018-Feb-17 08:58N 47°35' W 122°21'0 0.0
2018-Feb-17 08:28N 47°35' W 122°21'0 0.0
2018-Feb-17 07:58N 47°35' W 122°21'0 0.0
2018-Feb-17 07:28N 47°35' W 122°21'0 0.0
2018-Feb-17 06:58N 47°35' W 122°21'0 0.0
2018-Feb-17 06:28N 47°35' W 122°21'0 0.0
2018-Feb-17 05:58N 47°35' W 122°21'0 0.0
2018-Feb-17 05:28N 47°35' W 122°21'0 0.0
2018-Feb-17 04:58N 47°35' W 122°21'0 0.0
2018-Feb-17 04:28N 47°35' W 122°21'0 0.0
2018-Feb-17 03:58N 47°35' W 122°21'0 0.0
2018-Feb-17 03:28N 47°35' W 122°21'0 0.0
2018-Feb-17 02:58N 47°35' W 122°21'0 0.0
2018-Feb-17 02:25N 47°35' W 122°21'0 0.0
2018-Feb-17 01:58N 47°35' W 122°21'0 0.0
2018-Feb-17 01:25N 47°35' W 122°21'0 0.0
2018-Feb-17 00:58N 47°35' W 122°21'0 0.0
2018-Feb-17 00:28N 47°35' W 122°21'0 0.0
2018-Feb-16 23:58N 47°35' W 122°21'0 0.0
2018-Feb-16 23:25N 47°35' W 122°21'0 0.0
2018-Feb-16 22:58N 47°35' W 122°21'0 0.0
2018-Feb-16 22:28N 47°35' W 122°21'0 0.0
2018-Feb-16 21:58N 47°35' W 122°21'0 0.0
2018-Feb-16 21:28N 47°35' W 122°21'0 0.0
2018-Feb-16 20:58N 47°35' W 122°21'0 0.0
2018-Feb-16 20:28N 47°35' W 122°21'0 0.4
2018-Feb-16 20:00N 47°35' W 122°21'4 7.4
2018-Feb-16 19:30N 47°34' W 122°27'4 7.5
2018-Feb-16 19:00N 47°31' W 122°30'0 0.8
2018-Feb-16 18:31N 47°32' W 122°31'1 2.1
2018-Feb-16 18:00N 47°31' W 122°29'612.4
2018-Feb-16 17:30N 47°36' W 122°23'1 2.9
2018-Feb-16 17:00N 47°35' W 122°21'0 0.0
2018-Feb-16 16:30N 47°35' W 122°21'0 0.0
2018-Feb-16 16:00N 47°35' W 122°21'0 0.0
2018-Feb-16 15:30N 47°35' W 122°21'0 0.0
2018-Feb-16 15:00N 47°35' W 122°21'0 0.0
2018-Feb-16 14:30N 47°35' W 122°21'0 0.0
2018-Feb-16 13:57N 47°35' W 122°21'0 0.0
2018-Feb-16 13:30N 47°35' W 122°21'0 0.0
2018-Feb-16 12:57N 47°35' W 122°21'0 0.0
2018-Feb-16 12:30N 47°35' W 122°21'0 0.0
2018-Feb-16 12:00N 47°35' W 122°21'0 0.0
2018-Feb-16 11:30N 47°35' W 122°21'0 0.0
2018-Feb-16 11:00N 47°35' W 122°21'0 0.0
2018-Feb-16 10:30N 47°35' W 122°21'0 0.0
2018-Feb-16 10:00N 47°35' W 122°21'0 0.0
2018-Feb-16 09:30N 47°35' W 122°21'0 0.0
2018-Feb-16 09:00N 47°35' W 122°21'0 0.0
2018-Feb-16 08:30N 47°35' W 122°21'0 0.0
2018-Feb-16 08:00N 47°35' W 122°21'0 0.0
2018-Feb-16 07:30N 47°35' W 122°21'0 0.0
2018-Feb-16 07:00N 47°35' W 122°21'0 0.0
2018-Feb-16 06:30N 47°35' W 122°21'0 0.0
2018-Feb-16 06:00N 47°35' W 122°21'0 0.0
2018-Feb-16 05:30N 47°35' W 122°21'0 0.0
2018-Feb-16 05:00N 47°35' W 122°21'0 0.0
2018-Feb-16 04:30N 47°35' W 122°21'0 0.0
2018-Feb-16 03:57N 47°35' W 122°21'0 0.0
2018-Feb-16 03:30N 47°35' W 122°21'0 0.0
2018-Feb-16 03:00N 47°35' W 122°21'0 0.0
2018-Feb-16 02:30N 47°35' W 122°21'0 0.0
2018-Feb-16 02:00N 47°35' W 122°21'0 0.0
2018-Feb-16 01:30N 47°35' W 122°21'0 0.0
2018-Feb-16 01:00N 47°35' W 122°21'0 0.0
2018-Feb-16 00:30N 47°35' W 122°21'0 0.0
2018-Feb-16 00:00N 47°35' W 122°21'0 0.0
2018-Feb-15 23:31N 47°35' W 122°21'0 0.5
2018-Feb-15 23:01N 47°35' W 122°21'0 1.0
2018-Feb-15 22:31N 47°36' W 122°21'0 0.7
2018-Feb-15 22:01N 47°36' W 122°21'0 0.5
2018-Feb-15 21:30N 47°36' W 122°21'0 0.5
2018-Feb-15 21:01N 47°36' W 122°21'3 5.0
2018-Feb-15 20:30N 47°37' W 122°24'0 0.8
2018-Feb-15 20:00N 47°37' W 122°24'4 8.1
2018-Feb-15 19:31N 47°34' W 122°28'5 9.5
2018-Feb-15 19:01N 47°34' W 122°35'2 4.0
2018-Feb-15 18:30N 47°35' W 122°32'713.5
2018-Feb-15 18:00N 47°36' W 122°22'1 1.7
2018-Feb-15 17:27N 47°35' W 122°21'0 0.0
2018-Feb-15 16:57N 47°35' W 122°21'0 0.0
2018-Feb-15 16:27N 47°35' W 122°21'0 0.0
2018-Feb-15 15:57N 47°35' W 122°21'0 0.0
2018-Feb-15 15:27N 47°35' W 122°21'0 0.0
2018-Feb-15 14:57N 47°35' W 122°21'0 0.0
2018-Feb-15 14:27N 47°35' W 122°21'0 0.0
2018-Feb-15 13:57N 47°35' W 122°21'0 0.0
2018-Feb-15 13:27N 47°35' W 122°21'0 0.0
2018-Feb-15 12:57N 47°35' W 122°21'0 0.0
2018-Feb-15 12:27N 47°35' W 122°21'0 0.0
2018-Feb-15 11:57N 47°35' W 122°21'0 0.0
2018-Feb-15 11:27N 47°35' W 122°21'0 0.0
2018-Feb-15 10:57N 47°35' W 122°21'0 0.0
2018-Feb-15 10:27N 47°35' W 122°21'0 0.0
2018-Feb-15 09:57N 47°35' W 122°21'0 0.0
2018-Feb-15 09:27N 47°35' W 122°21'0 0.0
2018-Feb-15 08:57N 47°35' W 122°21'0 0.0
2018-Feb-15 08:27N 47°35' W 122°21'0 0.0
2018-Feb-15 07:57N 47°35' W 122°21'0 0.0
2018-Feb-15 07:27N 47°35' W 122°21'0 0.0
2018-Feb-15 06:57N 47°35' W 122°21'0 0.0
2018-Feb-15 06:27N 47°35' W 122°21'0 0.0
2018-Feb-15 05:57N 47°35' W 122°21'0 0.0
2018-Feb-15 05:27N 47°35' W 122°21'0 0.0
2018-Feb-15 04:57N 47°35' W 122°21'0 0.0
2018-Feb-15 04:27N 47°35' W 122°21'0 0.0
2018-Feb-15 03:57N 47°35' W 122°21'0 0.0
2018-Feb-15 03:27N 47°35' W 122°21'0 0.0
2018-Feb-15 02:57N 47°35' W 122°21'0 0.0
2018-Feb-15 02:27N 47°35' W 122°21'0 0.0
2018-Feb-15 01:57N 47°35' W 122°21'0 0.0
2018-Feb-15 01:27N 47°35' W 122°21'0 0.0
2018-Feb-15 00:57N 47°35' W 122°21'0 0.0
2018-Feb-15 00:27N 47°35' W 122°21'0 0.0
2018-Feb-14 23:57N 47°35' W 122°21'0 0.0
2018-Feb-14 23:27N 47°35' W 122°21'0 0.0
2018-Feb-14 22:57N 47°35' W 122°21'0 0.0
2018-Feb-14 22:27N 47°35' W 122°21'0 0.0
2018-Feb-14 21:57N 47°35' W 122°21'0 0.0
2018-Feb-14 21:27N 47°35' W 122°21'0 0.0
2018-Feb-14 20:57N 47°35' W 122°21'0 0.0
2018-Feb-14 20:30N 47°35' W 122°21'0 0.0
2018-Feb-14 20:00N 47°35' W 122°21'0 0.0
2018-Feb-14 19:27N 47°35' W 122°21'0 0.0
2018-Feb-14 19:00N 47°35' W 122°21'0 0.0
2018-Feb-14 18:30N 47°35' W 122°21'0 0.0
2018-Feb-14 18:00N 47°35' W 122°21'  
Track history (hours):
 
Tides and Currents Weather Stations Pressure Air Temp Water Temp Dewpoint Dewpoint Depression Visibility Wind Speed Wind Dir Waves Ship Positions

Kennicott

Owner: ALASKA, STATE OF, Anchorage, AK. More information available from US FCC via Universal Licensing System and Coast Guard Vessel Documentation Center.

Last reported at 2018-Feb-24 17:41 UTC. Time now 2018-Feb-26 01:18 UTC.
Position N 54°47' W 130°57'.

Type: Passenger vessel. MMSI: 368250000.

Date/timePositionNaut miles runAvg speedWind from/ knotsBaromVisibWave heightAir tempDewpointWater temp
2018-Feb-24 17:41N 54°47' W 130°57'214.5
2018-Feb-24 17:30N 54°45' W 130°54'714.8
2018-Feb-24 17:00N 54°40' W 130°45'714.3
2018-Feb-24 16:30N 54°33' W 130°39'714.3
2018-Feb-24 16:00N 54°26' W 130°37'714.5
2018-Feb-24 15:30N 54°19' W 130°35'713.9
2018-Feb-24 15:00N 54°14' W 130°27'4 7.6
2018-Feb-24 14:30N 54°17' W 130°22'1 1.6
2018-Feb-24 13:50N 54°18' W 130°21'0 0.0
2018-Feb-24 13:29N 54°18' W 130°21'0 0.0
2018-Feb-24 12:59N 54°18' W 130°21'0 0.0
2018-Feb-24 12:29N 54°18' W 130°21'0 0.0
2018-Feb-24 11:59N 54°18' W 130°21'0 0.0
2018-Feb-24 11:29N 54°18' W 130°21'1 1.4
2018-Feb-24 11:01N 54°17' W 130°22'4 8.3
2018-Feb-24 10:30N 54°13' W 130°23'815.8
2018-Feb-24 10:01N 54°18' W 130°34'815.8
2018-Feb-24 09:30N 54°25' W 130°37'816.1
2018-Feb-24 09:00N 54°33' W 130°40'915.7
2018-Feb-24 08:27N 54°41' W 130°48'13 1.4
2018-Feb-23 22:39N 54°52' W 131°01'416.0
2018-Feb-23 22:25N 54°48' W 130°59'614.6
2018-Feb-23 22:00N 54°44' W 130°52'815.7
2018-Feb-23 21:30N 54°38' W 130°43'816.0
2018-Feb-23 21:00N 54°30' W 130°38'815.2
2018-Feb-23 20:31N 54°23' W 130°36'815.8
2018-Feb-23 20:01N 54°15' W 130°32'815.5
2018-Feb-23 19:30N 54°09' W 130°25'714.7
2018-Feb-23 19:01N 54°03' W 130°16'815.9
2018-Feb-23 18:30N 53°56' W 130°12'815.7
2018-Feb-23 18:00N 53°51' W 130°02'816.1
2018-Feb-23 17:30N 53°45' W 129°52'7415.7
2018-Feb-23 12:48N 52°39' W 128°57'616.6
2018-Feb-23 12:24N 52°33' W 128°52'817.5
2018-Feb-23 11:58N 52°25' W 128°50'817.5
2018-Feb-23 11:30N 52°17' W 128°47'816.3
2018-Feb-23 11:00N 52°11' W 128°39'816.3
2018-Feb-23 10:30N 52°03' W 128°36'917.1
2018-Feb-23 10:00N 51°54' W 128°34'917.3
2018-Feb-23 09:30N 51°47' W 128°28'817.0
2018-Feb-23 09:00N 51°39' W 128°21'917.4
2018-Feb-23 08:30N 51°32' W 128°13'917.1
2018-Feb-23 08:00N 51°25' W 128°05'816.2
2018-Feb-23 07:30N 51°19' W 127°56'817.0
2018-Feb-23 07:00N 51°12' W 127°51'917.0
2018-Feb-23 06:30N 51°05' W 127°42'816.9
2018-Feb-23 06:00N 50°59' W 127°33'917.5
2018-Feb-23 05:30N 50°54' W 127°22'917.1
2018-Feb-23 04:59N 50°49' W 127°09'816.8
2018-Feb-23 04:30N 50°44' W 126°59'1116.8
2018-Feb-23 03:50N 50°37' W 126°46'514.8
2018-Feb-23 03:30N 50°33' W 126°41'816.1
2018-Feb-23 02:59N 50°30' W 126°29'2815.1
2018-Feb-23 01:08N 50°23' W 125°47'214.8
2018-Feb-23 01:01N 50°22' W 125°44'815.1
2018-Feb-23 00:30N 50°21' W 125°32'713.7
2018-Feb-23 00:00N 50°17' W 125°24'816.7
2018-Feb-22 23:30N 50°09' W 125°21'815.4
2018-Feb-22 23:00N 50°03' W 125°14'715.0
2018-Feb-22 22:30N 49°56' W 125°08'816.3
2018-Feb-22 22:01N 49°51' W 124°58'816.3
2018-Feb-22 21:30N 49°45' W 124°49'816.2
2018-Feb-22 21:01N 49°41' W 124°38'916.7
2018-Feb-22 20:29N 49°36' W 124°27'1616.2
2018-Feb-22 19:31N 49°28' W 124°06'116.2
2018-Feb-22 19:28N 49°28' W 124°05'816.5
2018-Feb-22 18:59N 49°24' W 123°55'816.5
2018-Feb-22 18:30N 49°19' W 123°45'816.4
2018-Feb-22 18:00N 49°13' W 123°36'816.7
2018-Feb-22 17:30N 49°08' W 123°26'816.3
2018-Feb-22 17:00N 49°02' W 123°17'816.5
2018-Feb-22 16:30N 48°57' W 123°08'816.5
2018-Feb-22 16:00N 48°51' W 122°58'816.7
2018-Feb-22 15:30N 48°46' W 122°48'816.3
2018-Feb-22 15:00N 48°40' W 122°41'511.0
2018-Feb-22 14:30N 48°41' W 122°33'2 5.0
2018-Feb-22 14:01N 48°43' W 122°31'0 0.0
2018-Feb-22 13:23N 48°43' W 122°31'0 0.0
2018-Feb-22 12:59N 48°43' W 122°31'0 0.0
2018-Feb-22 12:29N 48°43' W 122°31'0 0.0
2018-Feb-22 11:59N 48°43' W 122°31'0 0.0
2018-Feb-22 11:29N 48°43' W 122°31'0 0.0
2018-Feb-22 10:56N 48°43' W 122°31'0 0.0
2018-Feb-22 10:26N 48°43' W 122°31'0 0.0
2018-Feb-22 09:59N 48°43' W 122°31'0 0.0
2018-Feb-22 09:26N 48°43' W 122°31'0 0.0
2018-Feb-22 08:59N 48°43' W 122°31'0 0.0
2018-Feb-22 08:29N 48°43' W 122°31'0 0.0
2018-Feb-22 07:59N 48°43' W 122°31'0 0.0
2018-Feb-22 07:29N 48°43' W 122°31'0 0.0
2018-Feb-22 06:53N 48°43' W 122°31'0 0.0
2018-Feb-22 06:29N 48°43' W 122°31'0 0.0
2018-Feb-22 05:59N 48°43' W 122°31'0 0.0
2018-Feb-22 05:29N 48°43' W 122°31'0 0.0
2018-Feb-22 04:59N 48°43' W 122°31'0 0.0
2018-Feb-22 04:29N 48°43' W 122°31'0 0.0
2018-Feb-22 03:56N 48°43' W 122°31'0 0.0
2018-Feb-22 03:29N 48°43' W 122°31'0 0.0
2018-Feb-22 02:59N 48°43' W 122°31'0 0.0
2018-Feb-22 02:29N 48°43' W 122°31'0 0.0
2018-Feb-22 01:56N 48°43' W 122°31'0 0.0
2018-Feb-22 01:29N 48°43' W 122°31'0 0.0
2018-Feb-22 00:59N 48°43' W 122°31'0 0.0
2018-Feb-22 00:29N 48°43' W 122°31'0 0.0
2018-Feb-21 23:56N 48°43' W 122°31'0 0.0
2018-Feb-21 23:29N 48°43' W 122°31'0 0.0
2018-Feb-21 23:01N 48°43' W 122°31'0 0.0
2018-Feb-21 22:30N 48°43' W 122°31'0 0.0
2018-Feb-21 22:00N 48°43' W 122°31'0 0.0
2018-Feb-21 21:31N 48°43' W 122°31'1 1.6
2018-Feb-21 21:00N 48°44' W 122°32'4 7.2
2018-Feb-21 20:30N 48°40' W 122°31'2 3.3
2018-Feb-21 20:00N 48°39' W 122°33'612.3
2018-Feb-21 19:30N 48°34' W 122°40'612.8
2018-Feb-21 19:00N 48°29' W 122°44'815.5
2018-Feb-21 18:30N 48°21' W 122°45'1514.4
2018-Feb-21 17:29N 48°07' W 122°39'817.0
2018-Feb-21 17:01N 47°59' W 122°35'816.2
2018-Feb-21 16:31N 47°53' W 122°28'816.0
2018-Feb-21 16:01N 47°45' W 122°26'715.0
2018-Feb-21 15:31N 47°37' W 122°25'3 6.3
2018-Feb-21 15:00N 47°35' W 122°21'0 0.0
2018-Feb-21 14:30N 47°35' W 122°21'0 0.0
2018-Feb-21 14:00N 47°35' W 122°21'0 0.0
2018-Feb-21 13:30N 47°35' W 122°21'0 0.0
2018-Feb-21 13:00N 47°35' W 122°21'0 0.0
2018-Feb-21 12:30N 47°35' W 122°21'0 0.0
2018-Feb-21 12:00N 47°35' W 122°21'0 0.0
2018-Feb-21 11:30N 47°35' W 122°21'0 0.0
2018-Feb-21 11:00N 47°35' W 122°21'0 0.0
2018-Feb-21 10:30N 47°35' W 122°21'0 0.0
2018-Feb-21 10:00N 47°35' W 122°21'0 0.0
2018-Feb-21 09:30N 47°35' W 122°21'0 0.0
2018-Feb-21 09:00N 47°35' W 122°21'0 0.0
2018-Feb-21 08:30N 47°35' W 122°21'0 0.0
2018-Feb-21 08:00N 47°35' W 122°21'0 0.0
2018-Feb-21 07:30N 47°35' W 122°21'0 0.0
2018-Feb-21 07:00N 47°35' W 122°21'0 0.0
2018-Feb-21 06:30N 47°35' W 122°21'0 0.0
2018-Feb-21 06:00N 47°35' W 122°21'0 0.0
2018-Feb-21 05:30N 47°35' W 122°21'0 0.0
2018-Feb-21 05:00N 47°35' W 122°21'0 0.0
2018-Feb-21 04:30N 47°35' W 122°21'0 0.0
2018-Feb-21 04:00N 47°35' W 122°21'0 0.0
2018-Feb-21 03:30N 47°35' W 122°21'0 0.0
2018-Feb-21 03:00N 47°35' W 122°21'0 0.0
2018-Feb-21 02:30N 47°35' W 122°21'0 0.0
2018-Feb-21 02:00N 47°35' W 122°21'0 0.0
2018-Feb-21 01:30N 47°35' W 122°21'0 0.0
2018-Feb-21 01:00N 47°35' W 122°21'0 0.0
2018-Feb-21 00:30N 47°35' W 122°21'0 0.0
2018-Feb-21 00:00N 47°35' W 122°21'0 0.0
2018-Feb-20 23:30N 47°35' W 122°21'0 0.0
2018-Feb-20 23:00N 47°35' W 122°21'0 0.0
2018-Feb-20 22:28N 47°35' W 122°21'0 0.0
2018-Feb-20 21:58N 47°35' W 122°21'0 0.0
2018-Feb-20 21:28N 47°35' W 122°21'0 0.0
2018-Feb-20 20:58N 47°35' W 122°21'0 0.0
2018-Feb-20 20:28N 47°35' W 122°21'0 0.0
2018-Feb-20 19:58N 47°35' W 122°21'0 0.0
2018-Feb-20 19:28N 47°35' W 122°21'0 0.0
2018-Feb-20 18:58N 47°35' W 122°21'0 0.0
2018-Feb-20 18:28N 47°35' W 122°21'0 0.0
2018-Feb-20 17:58N 47°35' W 122°21'0 0.0
2018-Feb-20 17:28N 47°35' W 122°21'0 0.0
2018-Feb-20 16:58N 47°35' W 122°21'0 0.0
2018-Feb-20 16:28N 47°35' W 122°21'0 0.0
2018-Feb-20 15:58N 47°35' W 122°21'0 0.0
2018-Feb-20 15:28N 47°35' W 122°21'0 0.0
2018-Feb-20 14:58N 47°35' W 122°21'0 0.0
2018-Feb-20 14:28N 47°35' W 122°21'0 0.0
2018-Feb-20 13:58N 47°35' W 122°21'0 0.0
2018-Feb-20 13:28N 47°35' W 122°21'0 0.0
2018-Feb-20 12:58N 47°35' W 122°21'0 0.0
2018-Feb-20 12:28N 47°35' W 122°21'0 0.0
2018-Feb-20 11:58N 47°35' W 122°21'0 0.0
2018-Feb-20 11:28N 47°35' W 122°21'0 0.0
2018-Feb-20 10:58N 47°35' W 122°21'0 0.0
2018-Feb-20 10:28N 47°35' W 122°21'0 0.0
2018-Feb-20 09:58N 47°35' W 122°21'0 0.0
2018-Feb-20 09:28N 47°35' W 122°21'0 0.0
2018-Feb-20 08:58N 47°35' W 122°21'0 0.0
2018-Feb-20 08:28N 47°35' W 122°21'0 0.0
2018-Feb-20 07:58N 47°35' W 122°21'0 0.0
2018-Feb-20 07:28N 47°35' W 122°21'0 0.0
2018-Feb-20 06:58N 47°35' W 122°21'0 0.0
2018-Feb-20 06:28N 47°35' W 122°21'0 0.0
2018-Feb-20 05:58N 47°35' W 122°21'0 0.0
2018-Feb-20 05:28N 47°35' W 122°21'0 0.0
2018-Feb-20 04:58N 47°35' W 122°21'0 0.0
2018-Feb-20 04:28N 47°35' W 122°21'0 0.0
2018-Feb-20 03:58N 47°35' W 122°21'0 0.0
2018-Feb-20 03:28N 47°35' W 122°21'0 0.0
2018-Feb-20 02:58N 47°35' W 122°21'0 0.0
2018-Feb-20 02:28N 47°35' W 122°21'0 0.0
2018-Feb-20 01:58N 47°35' W 122°21'0 0.0
2018-Feb-20 01:28N 47°35' W 122°21'0 0.0
2018-Feb-20 00:59N 47°35' W 122°21'0 0.0
2018-Feb-20 00:28N 47°35' W 122°21'0 0.0
2018-Feb-20 00:00N 47°35' W 122°21'0 0.0
2018-Feb-19 23:29N 47°35' W 122°21'0 0.0
2018-Feb-19 23:00N 47°35' W 122°21'0 0.0
2018-Feb-19 22:29N 47°35' W 122°21'0 0.0
2018-Feb-19 21:58N 47°35' W 122°21'0 0.0
2018-Feb-19 21:28N 47°35' W 122°21'0 0.0
2018-Feb-19 20:59N 47°35' W 122°21'0 0.0
2018-Feb-19 20:29N 47°35' W 122°21'0 0.0
2018-Feb-19 19:59N 47°35' W 122°21'0 0.0
2018-Feb-19 19:29N 47°35' W 122°21'0 0.0
2018-Feb-19 18:58N 47°35' W 122°21'0 0.0
2018-Feb-19 18:30N 47°35' W 122°21'0 0.0
2018-Feb-19 17:58N 47°35' W 122°21'0 0.0
2018-Feb-19 17:28N 47°35' W 122°21'0 0.0
2018-Feb-19 16:58N 47°35' W 122°21'0 0.0
2018-Feb-19 16:28N 47°35' W 122°21'0 0.0
2018-Feb-19 15:58N 47°35' W 122°21'0 0.0
2018-Feb-19 15:28N 47°35' W 122°21'0 0.0
2018-Feb-19 14:58N 47°35' W 122°21'0 0.0
2018-Feb-19 14:28N 47°35' W 122°21'0 0.0
2018-Feb-19 13:58N 47°35' W 122°21'0 0.0
2018-Feb-19 13:28N 47°35' W 122°21'0 0.0
2018-Feb-19 12:58N 47°35' W 122°21'0 0.0
2018-Feb-19 12:28N 47°35' W 122°21'0 0.0
2018-Feb-19 11:58N 47°35' W 122°21'0 0.0
2018-Feb-19 11:28N 47°35' W 122°21'0 0.0
2018-Feb-19 10:58N 47°35' W 122°21'0 0.0
2018-Feb-19 10:28N 47°35' W 122°21'0 0.0
2018-Feb-19 09:58N 47°35' W 122°21'0 0.0
2018-Feb-19 09:28N 47°35' W 122°21'0 0.0
2018-Feb-19 08:58N 47°35' W 122°21'0 0.0
2018-Feb-19 08:25N 47°35' W 122°21'0 0.0
2018-Feb-19 07:58N 47°35' W 122°21'0 0.0
2018-Feb-19 07:28N 47°35' W 122°21'0 0.0
2018-Feb-19 06:55N 47°35' W 122°21'0 0.0
2018-Feb-19 06:28N 47°35' W 122°21'0 0.0
2018-Feb-19 05:58N 47°35' W 122°21'0 0.0
2018-Feb-19 05:28N 47°35' W 122°21'0 0.0
2018-Feb-19 04:58N 47°35' W 122°21'0 0.0
2018-Feb-19 04:28N 47°35' W 122°21'0 0.0
2018-Feb-19 03:58N 47°35' W 122°21'0 0.0
2018-Feb-19 03:28N 47°35' W 122°21'0 0.0
2018-Feb-19 02:58N 47°35' W 122°21'0 0.0
2018-Feb-19 02:28N 47°35' W 122°21'0 0.0
2018-Feb-19 01:58N 47°35' W 122°21'0 0.0
2018-Feb-19 01:28N 47°35' W 122°21'0 0.0
2018-Feb-19 00:58N 47°35' W 122°21'0 0.0
2018-Feb-19 00:28N 47°35' W 122°21'0 0.0
2018-Feb-18 23:58N 47°35' W 122°21'0 0.0
2018-Feb-18 23:28N 47°35' W 122°21'0 0.0
2018-Feb-18 22:58N 47°35' W 122°21'0 0.0
2018-Feb-18 22:28N 47°35' W 122°21'0 0.0
2018-Feb-18 21:58N 47°35' W 122°21'0 0.0
2018-Feb-18 21:29N 47°35' W 122°21'0 0.0
2018-Feb-18 21:00N 47°35' W 122°21'0 0.0
2018-Feb-18 20:29N 47°35' W 122°21'0 0.0
2018-Feb-18 19:58N 47°35' W 122°21'0 0.0
2018-Feb-18 19:29N 47°35' W 122°21'0 0.0
2018-Feb-18 18:58N 47°35' W 122°21'0 0.0
2018-Feb-18 18:28N 47°35' W 122°21'0 0.0
2018-Feb-18 17:58N 47°35' W 122°21'0 0.0
2018-Feb-18 17:28N 47°35' W 122°21'0 0.0
2018-Feb-18 16:55N 47°35' W 122°21'0 0.0
2018-Feb-18 16:28N 47°35' W 122°21'0 0.0
2018-Feb-18 15:58N 47°35' W 122°21'0 0.0
2018-Feb-18 15:28N 47°35' W 122°21'0 0.0
2018-Feb-18 14:55N 47°35' W 122°21'0 0.0
2018-Feb-18 14:28N 47°35' W 122°21'0 0.0
2018-Feb-18 13:58N 47°35' W 122°21'0 0.0
2018-Feb-18 13:28N 47°35' W 122°21'0 0.0
2018-Feb-18 12:58N 47°35' W 122°21'0 0.0
2018-Feb-18 12:28N 47°35' W 122°21'0 0.0
2018-Feb-18 11:58N 47°35' W 122°21'0 0.0
2018-Feb-18 11:28N 47°35' W 122°21'0 0.0
2018-Feb-18 10:58N 47°35' W 122°21'0 0.0
2018-Feb-18 10:28N 47°35' W 122°21'0 0.0
2018-Feb-18 09:58N 47°35' W 122°21'0 0.0
2018-Feb-18 09:28N 47°35' W 122°21'0 0.0
2018-Feb-18 08:58N 47°35' W 122°21'0 0.0
2018-Feb-18 08:25N 47°35' W 122°21'0 0.0
2018-Feb-18 07:55N 47°35' W 122°21'0 0.0
2018-Feb-18 07:28N 47°35' W 122°21'0 0.0
2018-Feb-18 06:58N 47°35' W 122°21'0 0.0
2018-Feb-18 06:28N 47°35' W 122°21'0 0.0
2018-Feb-18 05:58N 47°35' W 122°21'0 0.0
2018-Feb-18 05:28N 47°35' W 122°21'0 0.0
2018-Feb-18 04:58N 47°35' W 122°21'0 0.0
2018-Feb-18 04:28N 47°35' W 122°21'0 0.0
2018-Feb-18 03:58N 47°35' W 122°21'0 0.0
2018-Feb-18 03:25N 47°35' W 122°21'0 0.0
2018-Feb-18 02:58N 47°35' W 122°21'0 0.0
2018-Feb-18 02:28N 47°35' W 122°21'0 0.0
2018-Feb-18 01:58N 47°35' W 122°21'0 0.0
2018-Feb-18 01:28N 47°35' W 122°21'0 0.0
2018-Feb-18 00:58N 47°35' W 122°21'0 0.0
2018-Feb-18 00:28N 47°35' W 122°21'0 0.0
2018-Feb-17 23:58N 47°35' W 122°21'0 0.0
2018-Feb-17 23:28N 47°35' W 122°21'0 0.0
2018-Feb-17 22:58N 47°35' W 122°21'0 0.0
2018-Feb-17 22:28N 47°35' W 122°21'0 0.0
2018-Feb-17 21:58N 47°35' W 122°21'0 0.0
2018-Feb-17 21:28N 47°35' W 122°21'0 0.0
2018-Feb-17 20:58N 47°35' W 122°21'0 0.0
2018-Feb-17 20:28N 47°35' W 122°21'0 0.0
2018-Feb-17 19:58N 47°35' W 122°21'0 0.0
2018-Feb-17 19:28N 47°35' W 122°21'0 0.0
2018-Feb-17 18:58N 47°35' W 122°21'0 0.0
2018-Feb-17 18:28N 47°35' W 122°21'0 0.0
2018-Feb-17 17:58N 47°35' W 122°21'0 0.0
2018-Feb-17 17:28N 47°35' W 122°21'0 0.0
2018-Feb-17 16:58N 47°35' W 122°21'0 0.0
2018-Feb-17 16:28N 47°35' W 122°21'0 0.0
2018-Feb-17 15:58N 47°35' W 122°21'0 0.0
2018-Feb-17 15:28N 47°35' W 122°21'0 0.0
2018-Feb-17 14:58N 47°35' W 122°21'0 0.0
2018-Feb-17 14:28N 47°35' W 122°21'0 0.0
2018-Feb-17 13:58N 47°35' W 122°21'0 0.0
2018-Feb-17 13:28N 47°35' W 122°21'0 0.0
2018-Feb-17 12:58N 47°35' W 122°21'0 0.0
2018-Feb-17 12:28N 47°35' W 122°21'0 0.0
2018-Feb-17 11:58N 47°35' W 122°21'0 0.0
2018-Feb-17 11:28N 47°35' W 122°21'0 0.0
2018-Feb-17 10:58N 47°35' W 122°21'0 0.0
2018-Feb-17 10:28N 47°35' W 122°21'0 0.0
2018-Feb-17 09:58N 47°35' W 122°21'0 0.0
2018-Feb-17 09:28N 47°35' W 122°21'0 0.0
2018-Feb-17 08:58N 47°35' W 122°21'0 0.0
2018-Feb-17 08:28N 47°35' W 122°21'0 0.0
2018-Feb-17 07:58N 47°35' W 122°21'0 0.0
2018-Feb-17 07:28N 47°35' W 122°21'0 0.0
2018-Feb-17 06:58N 47°35' W 122°21'0 0.0
2018-Feb-17 06:28N 47°35' W 122°21'0 0.0
2018-Feb-17 05:58N 47°35' W 122°21'0 0.0
2018-Feb-17 05:28N 47°35' W 122°21'0 0.0
2018-Feb-17 04:58N 47°35' W 122°21'0 0.0
2018-Feb-17 04:28N 47°35' W 122°21'0 0.0
2018-Feb-17 03:58N 47°35' W 122°21'0 0.0
2018-Feb-17 03:28N 47°35' W 122°21'0 0.0
2018-Feb-17 02:58N 47°35' W 122°21'0 0.0
2018-Feb-17 02:25N 47°35' W 122°21'0 0.0
2018-Feb-17 01:58N 47°35' W 122°21'0 0.0
2018-Feb-17 01:25N 47°35' W 122°21'0 0.0
2018-Feb-17 00:58N 47°35' W 122°21'0 0.0
2018-Feb-17 00:28N 47°35' W 122°21'0 0.0
2018-Feb-16 23:58N 47°35' W 122°21'0 0.0
2018-Feb-16 23:25N 47°35' W 122°21'0 0.0
2018-Feb-16 22:58N 47°35' W 122°21'0 0.0
2018-Feb-16 22:28N 47°35' W 122°21'0 0.0
2018-Feb-16 21:58N 47°35' W 122°21'0 0.0
2018-Feb-16 21:28N 47°35' W 122°21'0 0.0
2018-Feb-16 20:58N 47°35' W 122°21'0 0.0
2018-Feb-16 20:28N 47°35' W 122°21'0 0.4
2018-Feb-16 20:00N 47°35' W 122°21'4 7.4
2018-Feb-16 19:30N 47°34' W 122°27'4 7.5
2018-Feb-16 19:00N 47°31' W 122°30'0 0.8
2018-Feb-16 18:31N 47°32' W 122°31'1 2.1
2018-Feb-16 18:00N 47°31' W 122°29'612.4
2018-Feb-16 17:30N 47°36' W 122°23'1 2.9
2018-Feb-16 17:00N 47°35' W 122°21'0 0.0
2018-Feb-16 16:30N 47°35' W 122°21'0 0.0
2018-Feb-16 16:00N 47°35' W 122°21'0 0.0
2018-Feb-16 15:30N 47°35' W 122°21'0 0.0
2018-Feb-16 15:00N 47°35' W 122°21'0 0.0
2018-Feb-16 14:30N 47°35' W 122°21'0 0.0
2018-Feb-16 13:57N 47°35' W 122°21'0 0.0
2018-Feb-16 13:30N 47°35' W 122°21'0 0.0
2018-Feb-16 12:57N 47°35' W 122°21'0 0.0
2018-Feb-16 12:30N 47°35' W 122°21'0 0.0
2018-Feb-16 12:00N 47°35' W 122°21'0 0.0
2018-Feb-16 11:30N 47°35' W 122°21'0 0.0
2018-Feb-16 11:00N 47°35' W 122°21'0 0.0
2018-Feb-16 10:30N 47°35' W 122°21'0 0.0
2018-Feb-16 10:00N 47°35' W 122°21'0 0.0
2018-Feb-16 09:30N 47°35' W 122°21'0 0.0
2018-Feb-16 09:00N 47°35' W 122°21'0 0.0
2018-Feb-16 08:30N 47°35' W 122°21'0 0.0
2018-Feb-16 08:00N 47°35' W 122°21'0 0.0
2018-Feb-16 07:30N 47°35' W 122°21'0 0.0
2018-Feb-16 07:00N 47°35' W 122°21'0 0.0
2018-Feb-16 06:30N 47°35' W 122°21'0 0.0
2018-Feb-16 06:00N 47°35' W 122°21'0 0.0
2018-Feb-16 05:30N 47°35' W 122°21'0 0.0
2018-Feb-16 05:00N 47°35' W 122°21'0 0.0
2018-Feb-16 04:30N 47°35' W 122°21'0 0.0
2018-Feb-16 03:57N 47°35' W 122°21'0 0.0
2018-Feb-16 03:30N 47°35' W 122°21'0 0.0
2018-Feb-16 03:00N 47°35' W 122°21'0 0.0
2018-Feb-16 02:30N 47°35' W 122°21'0 0.0
2018-Feb-16 02:00N 47°35' W 122°21'0 0.0
2018-Feb-16 01:30N 47°35' W 122°21'0 0.0
2018-Feb-16 01:00N 47°35' W 122°21'0 0.0
2018-Feb-16 00:30N 47°35' W 122°21'0 0.0
2018-Feb-16 00:00N 47°35' W 122°21'0 0.0
2018-Feb-15 23:31N 47°35' W 122°21'0 0.5
2018-Feb-15 23:01N 47°35' W 122°21'0 1.0
2018-Feb-15 22:31N 47°36' W 122°21'0 0.7
2018-Feb-15 22:01N 47°36' W 122°21'0 0.5
2018-Feb-15 21:30N 47°36' W 122°21'0 0.5
2018-Feb-15 21:01N 47°36' W 122°21'3 5.0
2018-Feb-15 20:30N 47°37' W 122°24'0 0.8
2018-Feb-15 20:00N 47°37' W 122°24'4 8.1
2018-Feb-15 19:31N 47°34' W 122°28'5 9.5
2018-Feb-15 19:01N 47°34' W 122°35'2 4.0
2018-Feb-15 18:30N 47°35' W 122°32'713.5
2018-Feb-15 18:00N 47°36' W 122°22'1 1.7
2018-Feb-15 17:27N 47°35' W 122°21'0 0.0
2018-Feb-15 16:57N 47°35' W 122°21'0 0.0
2018-Feb-15 16:27N 47°35' W 122°21'0 0.0
2018-Feb-15 15:57N 47°35' W 122°21'0 0.0
2018-Feb-15 15:27N 47°35' W 122°21'0 0.0
2018-Feb-15 14:57N 47°35' W 122°21'0 0.0
2018-Feb-15 14:27N 47°35' W 122°21'0 0.0
2018-Feb-15 13:57N 47°35' W 122°21'0 0.0
2018-Feb-15 13:27N 47°35' W 122°21'0 0.0
2018-Feb-15 12:57N 47°35' W 122°21'0 0.0
2018-Feb-15 12:27N 47°35' W 122°21'0 0.0
2018-Feb-15 11:57N 47°35' W 122°21'0 0.0
2018-Feb-15 11:27N 47°35' W 122°21'0 0.0
2018-Feb-15 10:57N 47°35' W 122°21'0 0.0
2018-Feb-15 10:27N 47°35' W 122°21'0 0.0
2018-Feb-15 09:57N 47°35' W 122°21'0 0.0
2018-Feb-15 09:27N 47°35' W 122°21'0 0.0
2018-Feb-15 08:57N 47°35' W 122°21'0 0.0
2018-Feb-15 08:27N 47°35' W 122°21'0 0.0
2018-Feb-15 07:57N 47°35' W 122°21'0 0.0
2018-Feb-15 07:27N 47°35' W 122°21'0 0.0
2018-Feb-15 06:57N 47°35' W 122°21'0 0.0
2018-Feb-15 06:27N 47°35' W 122°21'0 0.0
2018-Feb-15 05:57N 47°35' W 122°21'0 0.0
2018-Feb-15 05:27N 47°35' W 122°21'0 0.0
2018-Feb-15 04:57N 47°35' W 122°21'0 0.0
2018-Feb-15 04:27N 47°35' W 122°21'0 0.0
2018-Feb-15 03:57N 47°35' W 122°21'0 0.0
2018-Feb-15 03:27N 47°35' W 122°21'0 0.0
2018-Feb-15 02:57N 47°35' W 122°21'0 0.0
2018-Feb-15 02:27N 47°35' W 122°21'0 0.0
2018-Feb-15 01:57N 47°35' W 122°21'0 0.0
2018-Feb-15 01:27N 47°35' W 122°21'0 0.0
2018-Feb-15 00:57N 47°35' W 122°21'0 0.0
2018-Feb-15 00:27N 47°35' W 122°21'0 0.0
2018-Feb-14 23:57N 47°35' W 122°21'0 0.0
2018-Feb-14 23:27N 47°35' W 122°21'0 0.0
2018-Feb-14 22:57N 47°35' W 122°21'0 0.0
2018-Feb-14 22:27N 47°35' W 122°21'0 0.0
2018-Feb-14 21:57N 47°35' W 122°21'0 0.0
2018-Feb-14 21:27N 47°35' W 122°21'0 0.0
2018-Feb-14 20:57N 47°35' W 122°21'0 0.0
2018-Feb-14 20:30N 47°35' W 122°21'0 0.0
2018-Feb-14 20:00N 47°35' W 122°21'0 0.0
2018-Feb-14 19:27N 47°35' W 122°21'0 0.0
2018-Feb-14 19:00N 47°35' W 122°21'0 0.0
2018-Feb-14 18:30N 47°35' W 122°21'0 0.0
2018-Feb-14 18:00N 47°35' W 122°21'  

Dump ship's entire track history